sensor_id;sensor_type;location;lat;lon;timestamp;P1;durP1;ratioP1;P2;durP2;ratioP2
30380;SDS011;17169;50.966;11.038;2022-11-15T00:02:37;8.57;;;3.50;;
30380;SDS011;17169;50.966;11.038;2022-11-15T00:05:40;6.38;;;3.00;;
30380;SDS011;17169;50.966;11.038;2022-11-15T00:08:42;4.82;;;2.63;;
30380;SDS011;17169;50.966;11.038;2022-11-15T00:11:45;6.32;;;2.95;;
30380;SDS011;17169;50.966;11.038;2022-11-15T00:14:47;4.35;;;2.28;;
30380;SDS011;17169;50.966;11.038;2022-11-15T00:17:51;7.75;;;3.88;;
30380;SDS011;17169;50.966;11.038;2022-11-15T00:20:53;5.93;;;3.22;;
30380;SDS011;17169;50.966;11.038;2022-11-15T00:23:56;5.97;;;2.97;;
30380;SDS011;17169;50.966;11.038;2022-11-15T00:26:58;7.95;;;3.28;;
30380;SDS011;17169;50.966;11.038;2022-11-15T00:30:00;6.13;;;2.40;;
30380;SDS011;17169;50.966;11.038;2022-11-15T00:33:05;5.97;;;2.70;;
30380;SDS011;17169;50.966;11.038;2022-11-15T00:36:08;5.15;;;3.10;;
30380;SDS011;17169;50.966;11.038;2022-11-15T00:39:11;4.07;;;2.63;;
30380;SDS011;17169;50.966;11.038;2022-11-15T00:42:13;9.25;;;3.92;;
30380;SDS011;17169;50.966;11.038;2022-11-15T00:45:16;6.10;;;3.00;;
30380;SDS011;17169;50.966;11.038;2022-11-15T00:48:19;6.72;;;2.63;;
30380;SDS011;17169;50.966;11.038;2022-11-15T00:51:22;5.35;;;2.78;;
30380;SDS011;17169;50.966;11.038;2022-11-15T00:54:24;6.00;;;3.13;;
30380;SDS011;17169;50.966;11.038;2022-11-15T00:57:26;5.32;;;2.95;;
30380;SDS011;17169;50.966;11.038;2022-11-15T01:00:29;6.63;;;2.78;;
30380;SDS011;17169;50.966;11.038;2022-11-15T01:03:33;4.53;;;2.67;;
30380;SDS011;17169;50.966;11.038;2022-11-15T01:06:35;9.00;;;2.72;;
30380;SDS011;17169;50.966;11.038;2022-11-15T01:09:38;6.32;;;2.72;;
30380;SDS011;17169;50.966;11.038;2022-11-15T01:12:40;6.03;;;2.63;;
30380;SDS011;17169;50.966;11.038;2022-11-15T01:15:43;4.55;;;2.67;;
30380;SDS011;17169;50.966;11.038;2022-11-15T01:18:46;8.50;;;3.17;;
30380;SDS011;17169;50.966;11.038;2022-11-15T01:21:49;7.20;;;2.70;;
30380;SDS011;17169;50.966;11.038;2022-11-15T01:24:51;12.63;;;3.13;;
30380;SDS011;17169;50.966;11.038;2022-11-15T01:27:54;6.43;;;2.83;;
30380;SDS011;17169;50.966;11.038;2022-11-15T01:30:57;7.47;;;2.65;;
30380;SDS011;17169;50.966;11.038;2022-11-15T01:34:01;4.55;;;2.70;;
30380;SDS011;17169;50.966;11.038;2022-11-15T01:37:03;5.18;;;2.97;;
30380;SDS011;17169;50.966;11.038;2022-11-15T01:40:06;7.18;;;3.08;;
30380;SDS011;17169;50.966;11.038;2022-11-15T01:43:19;4.82;;;2.92;;
30380;SDS011;17169;50.966;11.038;2022-11-15T01:46:23;7.63;;;2.60;;
30380;SDS011;17169;50.966;11.038;2022-11-15T01:49:32;5.60;;;2.40;;
30380;SDS011;17169;50.966;11.038;2022-11-15T01:52:36;7.05;;;2.50;;
30380;SDS011;17169;50.966;11.038;2022-11-15T01:55:41;6.22;;;2.67;;
30380;SDS011;17169;50.966;11.038;2022-11-15T01:58:43;5.05;;;2.70;;
30380;SDS011;17169;50.966;11.038;2022-11-15T02:01:47;7.00;;;2.40;;
30380;SDS011;17169;50.966;11.038;2022-11-15T02:04:50;5.30;;;2.75;;
30380;SDS011;17169;50.966;11.038;2022-11-15T02:07:53;7.05;;;2.33;;
30380;SDS011;17169;50.966;11.038;2022-11-15T02:10:55;5.97;;;2.90;;
30380;SDS011;17169;50.966;11.038;2022-11-15T02:13:58;6.85;;;2.40;;
30380;SDS011;17169;50.966;11.038;2022-11-15T02:17:05;5.00;;;2.50;;
30380;SDS011;17169;50.966;11.038;2022-11-15T02:31:02;5.53;;;2.40;;
30380;SDS011;17169;50.966;11.038;2022-11-15T02:34:09;4.30;;;2.42;;
30380;SDS011;17169;50.966;11.038;2022-11-15T02:37:22;4.32;;;2.42;;
30380;SDS011;17169;50.966;11.038;2022-11-15T02:40:41;4.30;;;2.35;;
30380;SDS011;17169;50.966;11.038;2022-11-15T02:43:53;7.85;;;2.40;;
30380;SDS011;17169;50.966;11.038;2022-11-15T02:47:03;4.70;;;2.50;;
30380;SDS011;17169;50.966;11.038;2022-11-15T02:53:23;5.90;;;2.85;;
30380;SDS011;17169;50.966;11.038;2022-11-15T02:56:26;6.30;;;3.03;;
30380;SDS011;17169;50.966;11.038;2022-11-15T02:59:33;3.40;;;2.20;;
30380;SDS011;17169;50.966;11.038;2022-11-15T03:06:24;5.03;;;2.50;;
30380;SDS011;17169;50.966;11.038;2022-11-15T03:09:38;5.90;;;2.57;;
30380;SDS011;17169;50.966;11.038;2022-11-15T03:12:48;4.40;;;2.63;;
30380;SDS011;17169;50.966;11.038;2022-11-15T03:15:56;7.90;;;2.92;;
30380;SDS011;17169;50.966;11.038;2022-11-15T03:19:06;5.18;;;2.53;;
30380;SDS011;17169;50.966;11.038;2022-11-15T03:22:15;16.17;;;3.60;;
30380;SDS011;17169;50.966;11.038;2022-11-15T03:25:21;11.15;;;3.97;;
30380;SDS011;17169;50.966;11.038;2022-11-15T03:28:27;15.60;;;8.13;;
30380;SDS011;17169;50.966;11.038;2022-11-15T03:31:34;8.00;;;3.60;;
30380;SDS011;17169;50.966;11.038;2022-11-15T03:34:51;5.78;;;3.33;;
30380;SDS011;17169;50.966;11.038;2022-11-15T03:37:59;4.20;;;2.40;;
30380;SDS011;17169;50.966;11.038;2022-11-15T03:41:08;6.75;;;2.72;;
30380;SDS011;17169;50.966;11.038;2022-11-15T03:44:18;6.75;;;2.78;;
30380;SDS011;17169;50.966;11.038;2022-11-15T03:47:28;5.68;;;2.50;;
30380;SDS011;17169;50.966;11.038;2022-11-15T03:50:36;9.10;;;2.90;;
30380;SDS011;17169;50.966;11.038;2022-11-15T03:53:38;6.45;;;3.20;;
30380;SDS011;17169;50.966;11.038;2022-11-15T03:56:42;7.00;;;2.70;;
30380;SDS011;17169;50.966;11.038;2022-11-15T03:59:45;6.97;;;3.10;;
30380;SDS011;17169;50.966;11.038;2022-11-15T04:02:47;6.22;;;2.63;;
30380;SDS011;17169;50.966;11.038;2022-11-15T04:05:51;6.10;;;2.40;;
30380;SDS011;17169;50.966;11.038;2022-11-15T04:08:53;5.43;;;2.35;;
30380;SDS011;17169;50.966;11.038;2022-11-15T04:11:55;5.40;;;2.50;;
30380;SDS011;17169;50.966;11.038;2022-11-15T04:14:59;5.88;;;2.92;;
30380;SDS011;17169;50.966;11.038;2022-11-15T04:18:11;6.00;;;2.55;;
30380;SDS011;17169;50.966;11.038;2022-11-15T04:21:14;5.00;;;2.47;;
30380;SDS011;17169;50.966;11.038;2022-11-15T04:24:34;5.97;;;2.65;;
30380;SDS011;17169;50.966;11.038;2022-11-15T04:27:37;6.18;;;2.95;;
30380;SDS011;17169;50.966;11.038;2022-11-15T04:30:39;5.63;;;2.30;;
30380;SDS011;17169;50.966;11.038;2022-11-15T04:33:41;8.63;;;3.03;;
30380;SDS011;17169;50.966;11.038;2022-11-15T04:36:45;4.72;;;2.35;;
30380;SDS011;17169;50.966;11.038;2022-11-15T04:40:05;5.60;;;2.70;;
30380;SDS011;17169;50.966;11.038;2022-11-15T04:43:08;6.63;;;2.33;;
30380;SDS011;17169;50.966;11.038;2022-11-15T04:46:11;5.18;;;2.60;;
30380;SDS011;17169;50.966;11.038;2022-11-15T04:49:13;5.95;;;2.67;;
30380;SDS011;17169;50.966;11.038;2022-11-15T04:52:17;6.03;;;2.65;;
30380;SDS011;17169;50.966;11.038;2022-11-15T04:55:19;4.40;;;2.67;;
30380;SDS011;17169;50.966;11.038;2022-11-15T04:58:21;5.25;;;2.33;;
30380;SDS011;17169;50.966;11.038;2022-11-15T05:01:24;6.70;;;2.45;;
30380;SDS011;17169;50.966;11.038;2022-11-15T05:04:26;7.95;;;2.40;;
30380;SDS011;17169;50.966;11.038;2022-11-15T05:07:30;4.45;;;2.47;;
30380;SDS011;17169;50.966;11.038;2022-11-15T05:10:32;5.18;;;2.70;;
30380;SDS011;17169;50.966;11.038;2022-11-15T05:13:35;14.00;;;2.90;;
30380;SDS011;17169;50.966;11.038;2022-11-15T05:16:37;5.32;;;2.40;;
30380;SDS011;17169;50.966;11.038;2022-11-15T05:19:40;5.78;;;2.65;;
30380;SDS011;17169;50.966;11.038;2022-11-15T05:22:43;5.88;;;2.40;;
30380;SDS011;17169;50.966;11.038;2022-11-15T05:25:46;5.55;;;2.95;;
30380;SDS011;17169;50.966;11.038;2022-11-15T05:28:51;4.57;;;2.58;;
30380;SDS011;17169;50.966;11.038;2022-11-15T05:31:54;7.30;;;2.75;;
30380;SDS011;17169;50.966;11.038;2022-11-15T05:34:56;9.65;;;2.70;;
30380;SDS011;17169;50.966;11.038;2022-11-15T05:38:00;5.97;;;2.58;;
30380;SDS011;17169;50.966;11.038;2022-11-15T05:41:03;6.68;;;2.85;;
30380;SDS011;17169;50.966;11.038;2022-11-15T05:44:07;8.02;;;2.80;;
30380;SDS011;17169;50.966;11.038;2022-11-15T05:47:12;5.57;;;2.60;;
30380;SDS011;17169;50.966;11.038;2022-11-15T05:50:17;5.53;;;2.47;;
30380;SDS011;17169;50.966;11.038;2022-11-15T05:53:22;6.63;;;2.80;;
30380;SDS011;17169;50.966;11.038;2022-11-15T05:59:28;7.05;;;2.50;;
30380;SDS011;17169;50.966;11.038;2022-11-15T06:02:31;6.13;;;2.83;;
30380;SDS011;17169;50.966;11.038;2022-11-15T06:05:34;10.27;;;2.38;;
30380;SDS011;17169;50.966;11.038;2022-11-15T06:08:37;4.43;;;2.40;;
30380;SDS011;17169;50.966;11.038;2022-11-15T06:11:40;6.05;;;2.40;;
30380;SDS011;17169;50.966;11.038;2022-11-15T06:14:42;5.25;;;2.20;;
30380;SDS011;17169;50.966;11.038;2022-11-15T06:17:44;5.63;;;2.58;;
30380;SDS011;17169;50.966;11.038;2022-11-15T06:20:47;4.90;;;2.40;;
30380;SDS011;17169;50.966;11.038;2022-11-15T06:23:50;7.53;;;2.40;;
30380;SDS011;17169;50.966;11.038;2022-11-15T06:26:53;6.05;;;2.55;;
30380;SDS011;17169;50.966;11.038;2022-11-15T06:29:55;6.97;;;2.80;;
30380;SDS011;17169;50.966;11.038;2022-11-15T06:32:58;7.65;;;2.60;;
30380;SDS011;17169;50.966;11.038;2022-11-15T06:36:02;5.80;;;2.75;;
30380;SDS011;17169;50.966;11.038;2022-11-15T06:39:06;11.48;;;3.88;;
30380;SDS011;17169;50.966;11.038;2022-11-15T06:42:09;8.00;;;4.25;;
30380;SDS011;17169;50.966;11.038;2022-11-15T06:45:11;8.73;;;3.60;;
30380;SDS011;17169;50.966;11.038;2022-11-15T06:48:13;8.38;;;4.25;;
30380;SDS011;17169;50.966;11.038;2022-11-15T06:51:16;12.73;;;4.72;;
30380;SDS011;17169;50.966;11.038;2022-11-15T06:54:20;16.80;;;4.97;;
30380;SDS011;17169;50.966;11.038;2022-11-15T06:57:22;8.60;;;4.65;;
30380;SDS011;17169;50.966;11.038;2022-11-15T07:00:25;11.90;;;5.18;;
30380;SDS011;17169;50.966;11.038;2022-11-15T07:03:27;10.30;;;5.22;;
30380;SDS011;17169;50.966;11.038;2022-11-15T07:06:30;11.23;;;4.78;;
30380;SDS011;17169;50.966;11.038;2022-11-15T07:09:34;12.40;;;5.40;;
30380;SDS011;17169;50.966;11.038;2022-11-15T07:12:36;12.20;;;6.57;;
30380;SDS011;17169;50.966;11.038;2022-11-15T07:15:39;12.95;;;4.72;;
30380;SDS011;17169;50.966;11.038;2022-11-15T07:18:41;13.02;;;4.60;;
30380;SDS011;17169;50.966;11.038;2022-11-15T07:21:43;9.48;;;4.38;;
30380;SDS011;17169;50.966;11.038;2022-11-15T07:24:47;6.97;;;3.72;;
30380;SDS011;17169;50.966;11.038;2022-11-15T07:27:53;9.45;;;4.43;;
30380;SDS011;17169;50.966;11.038;2022-11-15T07:30:56;9.88;;;4.40;;
30380;SDS011;17169;50.966;11.038;2022-11-15T07:33:59;9.50;;;4.38;;
30380;SDS011;17169;50.966;11.038;2022-11-15T07:37:01;9.15;;;3.95;;
30380;SDS011;17169;50.966;11.038;2022-11-15T07:40:06;6.55;;;3.15;;
30380;SDS011;17169;50.966;11.038;2022-11-15T07:43:09;8.15;;;3.78;;
30380;SDS011;17169;50.966;11.038;2022-11-15T07:46:12;12.07;;;3.80;;
30380;SDS011;17169;50.966;11.038;2022-11-15T07:49:14;12.23;;;3.88;;
30380;SDS011;17169;50.966;11.038;2022-11-15T07:52:16;6.97;;;3.92;;
30380;SDS011;17169;50.966;11.038;2022-11-15T07:55:20;7.13;;;3.75;;
30380;SDS011;17169;50.966;11.038;2022-11-15T07:58:23;6.45;;;4.00;;
30380;SDS011;17169;50.966;11.038;2022-11-15T08:01:25;18.20;;;4.00;;
30380;SDS011;17169;50.966;11.038;2022-11-15T08:04:27;10.02;;;3.90;;
30380;SDS011;17169;50.966;11.038;2022-11-15T08:07:30;7.47;;;4.20;;
30380;SDS011;17169;50.966;11.038;2022-11-15T08:10:34;5.90;;;3.60;;
30380;SDS011;17169;50.966;11.038;2022-11-15T08:13:36;7.75;;;3.22;;
30380;SDS011;17169;50.966;11.038;2022-11-15T08:16:39;9.00;;;3.53;;
30380;SDS011;17169;50.966;11.038;2022-11-15T08:19:41;6.82;;;2.80;;
30380;SDS011;17169;50.966;11.038;2022-11-15T08:22:43;10.18;;;3.13;;
30380;SDS011;17169;50.966;11.038;2022-11-15T08:25:47;7.80;;;3.55;;
30380;SDS011;17169;50.966;11.038;2022-11-15T08:28:49;8.80;;;3.22;;
30380;SDS011;17169;50.966;11.038;2022-11-15T08:31:54;5.80;;;3.10;;
30380;SDS011;17169;50.966;11.038;2022-11-15T08:34:56;6.20;;;3.13;;
30380;SDS011;17169;50.966;11.038;2022-11-15T08:37:58;8.75;;;3.72;;
30380;SDS011;17169;50.966;11.038;2022-11-15T08:41:03;6.88;;;3.47;;
30380;SDS011;17169;50.966;11.038;2022-11-15T08:47:08;9.25;;;3.13;;
30380;SDS011;17169;50.966;11.038;2022-11-15T08:50:13;6.72;;;3.40;;
30380;SDS011;17169;50.966;11.038;2022-11-15T08:53:16;5.93;;;3.13;;
30380;SDS011;17169;50.966;11.038;2022-11-15T08:56:20;7.35;;;3.53;;
30380;SDS011;17169;50.966;11.038;2022-11-15T08:59:22;9.43;;;3.78;;
30380;SDS011;17169;50.966;11.038;2022-11-15T09:02:24;9.10;;;3.03;;
30380;SDS011;17169;50.966;11.038;2022-11-15T09:05:27;7.53;;;3.30;;
30380;SDS011;17169;50.966;11.038;2022-11-15T09:08:29;4.65;;;2.70;;
30380;SDS011;17169;50.966;11.038;2022-11-15T09:11:34;13.20;;;3.28;;
30380;SDS011;17169;50.966;11.038;2022-11-15T09:14:36;5.55;;;2.55;;
30380;SDS011;17169;50.966;11.038;2022-11-15T09:17:38;7.35;;;2.78;;
30380;SDS011;17169;50.966;11.038;2022-11-15T09:20:41;5.75;;;2.15;;
30380;SDS011;17169;50.966;11.038;2022-11-15T09:23:43;5.10;;;2.42;;
30380;SDS011;17169;50.966;11.038;2022-11-15T09:26:47;6.55;;;2.38;;
30380;SDS011;17169;50.966;11.038;2022-11-15T09:29:51;7.55;;;2.50;;
30380;SDS011;17169;50.966;11.038;2022-11-15T09:32:54;7.00;;;2.47;;
30380;SDS011;17169;50.966;11.038;2022-11-15T09:35:59;5.20;;;2.55;;
30380;SDS011;17169;50.966;11.038;2022-11-15T09:39:02;5.13;;;2.30;;
30380;SDS011;17169;50.966;11.038;2022-11-15T09:42:10;6.28;;;2.75;;
30380;SDS011;17169;50.966;11.038;2022-11-15T09:45:26;8.48;;;3.90;;
30380;SDS011;17169;50.966;11.038;2022-11-15T09:48:42;7.55;;;3.08;;
30380;SDS011;17169;50.966;11.038;2022-11-15T09:51:57;5.78;;;2.72;;
30380;SDS011;17169;50.966;11.038;2022-11-15T09:55:00;4.72;;;2.75;;
30380;SDS011;17169;50.966;11.038;2022-11-15T09:58:05;5.75;;;2.78;;
30380;SDS011;17169;50.966;11.038;2022-11-15T10:01:19;6.47;;;2.70;;
30380;SDS011;17169;50.966;11.038;2022-11-15T10:04:43;5.65;;;2.85;;
30380;SDS011;17169;50.966;11.038;2022-11-15T10:07:46;6.93;;;2.75;;
30380;SDS011;17169;50.966;11.038;2022-11-15T10:10:58;7.28;;;3.13;;
30380;SDS011;17169;50.966;11.038;2022-11-15T10:14:04;8.07;;;2.70;;
30380;SDS011;17169;50.966;11.038;2022-11-15T10:20:52;5.72;;;2.45;;
30380;SDS011;17169;50.966;11.038;2022-11-15T10:23:58;4.43;;;2.15;;
30380;SDS011;17169;50.966;11.038;2022-11-15T10:27:01;7.05;;;2.20;;
30380;SDS011;17169;50.966;11.038;2022-11-15T10:30:12;3.30;;;1.90;;
30380;SDS011;17169;50.966;11.038;2022-11-15T10:33:27;3.80;;;2.10;;
30380;SDS011;17169;50.966;11.038;2022-11-15T10:36:34;10.20;;;2.38;;
30380;SDS011;17169;50.966;11.038;2022-11-15T10:39:36;7.13;;;2.97;;
30380;SDS011;17169;50.966;11.038;2022-11-15T10:42:39;5.63;;;2.63;;
30380;SDS011;17169;50.966;11.038;2022-11-15T10:45:43;7.13;;;2.08;;
30380;SDS011;17169;50.966;11.038;2022-11-15T10:48:46;4.55;;;2.22;;
30380;SDS011;17169;50.966;11.038;2022-11-15T10:51:51;3.88;;;2.00;;
30380;SDS011;17169;50.966;11.038;2022-11-15T10:54:56;3.75;;;2.13;;
30380;SDS011;17169;50.966;11.038;2022-11-15T10:58:03;10.20;;;3.05;;
30380;SDS011;17169;50.966;11.038;2022-11-15T11:01:10;4.47;;;2.28;;
30380;SDS011;17169;50.966;11.038;2022-11-15T11:04:15;10.73;;;2.88;;
30380;SDS011;17169;50.966;11.038;2022-11-15T11:07:19;38.00;;;6.05;;
30380;SDS011;17169;50.966;11.038;2022-11-15T11:10:23;4.93;;;2.33;;
30380;SDS011;17169;50.966;11.038;2022-11-15T11:13:26;8.82;;;2.92;;
30380;SDS011;17169;50.966;11.038;2022-11-15T11:19:59;3.40;;;1.63;;
30380;SDS011;17169;50.966;11.038;2022-11-15T11:23:15;4.25;;;1.90;;
30380;SDS011;17169;50.966;11.038;2022-11-15T11:26:32;3.58;;;1.88;;
30380;SDS011;17169;50.966;11.038;2022-11-15T11:29:46;4.10;;;2.05;;
30380;SDS011;17169;50.966;11.038;2022-11-15T11:33:05;7.32;;;1.88;;
30380;SDS011;17169;50.966;11.038;2022-11-15T11:36:15;6.97;;;2.30;;
30380;SDS011;17169;50.966;11.038;2022-11-15T11:39:24;6.82;;;2.20;;
30380;SDS011;17169;50.966;11.038;2022-11-15T11:42:33;5.30;;;2.53;;
30380;SDS011;17169;50.966;11.038;2022-11-15T11:45:47;4.57;;;1.88;;
30380;SDS011;17169;50.966;11.038;2022-11-15T11:49:09;5.15;;;1.83;;
30380;SDS011;17169;50.966;11.038;2022-11-15T11:52:16;4.45;;;2.22;;
30380;SDS011;17169;50.966;11.038;2022-11-15T11:55:23;3.63;;;1.80;;
30380;SDS011;17169;50.966;11.038;2022-11-15T11:58:31;4.60;;;2.05;;
30380;SDS011;17169;50.966;11.038;2022-11-15T12:01:39;5.35;;;1.80;;
30380;SDS011;17169;50.966;11.038;2022-11-15T12:04:47;3.78;;;2.00;;
30380;SDS011;17169;50.966;11.038;2022-11-15T12:07:53;3.90;;;1.90;;
30380;SDS011;17169;50.966;11.038;2022-11-15T12:11:04;4.90;;;1.98;;
30380;SDS011;17169;50.966;11.038;2022-11-15T12:14:12;6.00;;;1.70;;
30380;SDS011;17169;50.966;11.038;2022-11-15T12:17:23;5.00;;;2.00;;
30380;SDS011;17169;50.966;11.038;2022-11-15T12:20:30;5.15;;;2.10;;
30380;SDS011;17169;50.966;11.038;2022-11-15T12:23:38;5.25;;;1.90;;
30380;SDS011;17169;50.966;11.038;2022-11-15T12:26:47;6.32;;;2.33;;
30380;SDS011;17169;50.966;11.038;2022-11-15T12:29:54;7.22;;;2.20;;
30380;SDS011;17169;50.966;11.038;2022-11-15T12:32:59;4.68;;;2.00;;
30380;SDS011;17169;50.966;11.038;2022-11-15T12:36:05;6.63;;;2.40;;
30380;SDS011;17169;50.966;11.038;2022-11-15T12:39:11;4.40;;;1.98;;
30380;SDS011;17169;50.966;11.038;2022-11-15T12:45:37;4.97;;;1.70;;
30380;SDS011;17169;50.966;11.038;2022-11-15T12:48:45;8.45;;;2.10;;
30380;SDS011;17169;50.966;11.038;2022-11-15T12:52:07;3.70;;;1.90;;
30380;SDS011;17169;50.966;11.038;2022-11-15T12:58:40;2.53;;;1.63;;
30380;SDS011;17169;50.966;11.038;2022-11-15T13:01:52;4.95;;;1.92;;
30380;SDS011;17169;50.966;11.038;2022-11-15T13:08:56;5.50;;;2.33;;
30380;SDS011;17169;50.966;11.038;2022-11-15T13:11:58;3.55;;;1.52;;
30380;SDS011;17169;50.966;11.038;2022-11-15T13:15:08;6.57;;;1.90;;
30380;SDS011;17169;50.966;11.038;2022-11-15T13:18:35;4.63;;;2.65;;
30380;SDS011;17169;50.966;11.038;2022-11-15T13:21:47;3.72;;;1.30;;
30380;SDS011;17169;50.966;11.038;2022-11-15T13:25:16;4.97;;;1.80;;
30380;SDS011;17169;50.966;11.038;2022-11-15T13:28:27;10.40;;;2.40;;
30380;SDS011;17169;50.966;11.038;2022-11-15T13:31:35;4.80;;;1.63;;
30380;SDS011;17169;50.966;11.038;2022-11-15T13:34:39;4.40;;;1.67;;
30380;SDS011;17169;50.966;11.038;2022-11-15T13:37:47;6.72;;;1.70;;
30380;SDS011;17169;50.966;11.038;2022-11-15T13:40:51;4.93;;;1.60;;
30380;SDS011;17169;50.966;11.038;2022-11-15T13:43:54;4.60;;;1.50;;
30380;SDS011;17169;50.966;11.038;2022-11-15T13:47:00;4.47;;;1.92;;
30380;SDS011;17169;50.966;11.038;2022-11-15T13:50:04;2.97;;;1.83;;
30380;SDS011;17169;50.966;11.038;2022-11-15T13:53:08;3.72;;;1.45;;
30380;SDS011;17169;50.966;11.038;2022-11-15T13:56:13;8.68;;;1.77;;
30380;SDS011;17169;50.966;11.038;2022-11-15T13:59:19;7.47;;;2.00;;
30380;SDS011;17169;50.966;11.038;2022-11-15T14:02:27;5.13;;;1.63;;
30380;SDS011;17169;50.966;11.038;2022-11-15T14:05:31;8.13;;;2.00;;
30380;SDS011;17169;50.966;11.038;2022-11-15T14:08:34;6.65;;;2.33;;
30380;SDS011;17169;50.966;11.038;2022-11-15T14:11:38;9.13;;;2.38;;
30380;SDS011;17169;50.966;11.038;2022-11-15T14:14:51;8.07;;;2.10;;
30380;SDS011;17169;50.966;11.038;2022-11-15T14:17:54;5.45;;;2.00;;
30380;SDS011;17169;50.966;11.038;2022-11-15T14:21:05;6.20;;;1.90;;
30380;SDS011;17169;50.966;11.038;2022-11-15T14:24:13;7.72;;;1.75;;
30380;SDS011;17169;50.966;11.038;2022-11-15T14:27:19;4.45;;;2.10;;
30380;SDS011;17169;50.966;11.038;2022-11-15T14:30:23;10.43;;;2.10;;
30380;SDS011;17169;50.966;11.038;2022-11-15T14:33:27;3.67;;;1.70;;
30380;SDS011;17169;50.966;11.038;2022-11-15T14:36:31;4.88;;;2.42;;
30380;SDS011;17169;50.966;11.038;2022-11-15T14:39:34;3.72;;;1.67;;
30380;SDS011;17169;50.966;11.038;2022-11-15T14:42:37;3.15;;;1.20;;
30380;SDS011;17169;50.966;11.038;2022-11-15T14:45:40;5.20;;;1.55;;
30380;SDS011;17169;50.966;11.038;2022-11-15T14:48:43;2.25;;;1.20;;
30380;SDS011;17169;50.966;11.038;2022-11-15T14:51:45;2.95;;;1.58;;
30380;SDS011;17169;50.966;11.038;2022-11-15T14:54:47;5.35;;;2.00;;
30380;SDS011;17169;50.966;11.038;2022-11-15T14:57:51;3.67;;;1.45;;
30380;SDS011;17169;50.966;11.038;2022-11-15T15:00:54;3.33;;;1.77;;
30380;SDS011;17169;50.966;11.038;2022-11-15T15:03:56;3.13;;;1.30;;
30380;SDS011;17169;50.966;11.038;2022-11-15T15:06:59;6.03;;;1.58;;
30380;SDS011;17169;50.966;11.038;2022-11-15T15:10:01;4.90;;;1.58;;
30380;SDS011;17169;50.966;11.038;2022-11-15T15:13:05;3.72;;;1.42;;
30380;SDS011;17169;50.966;11.038;2022-11-15T15:16:10;4.18;;;1.52;;
30380;SDS011;17169;50.966;11.038;2022-11-15T15:19:12;5.18;;;1.30;;
30380;SDS011;17169;50.966;11.038;2022-11-15T15:22:15;8.57;;;1.30;;
30380;SDS011;17169;50.966;11.038;2022-11-15T15:25:23;4.03;;;1.40;;
30380;SDS011;17169;50.966;11.038;2022-11-15T15:28:30;3.22;;;1.60;;
30380;SDS011;17169;50.966;11.038;2022-11-15T15:31:32;5.60;;;1.60;;
30380;SDS011;17169;50.966;11.038;2022-11-15T15:34:35;3.92;;;1.70;;
30380;SDS011;17169;50.966;11.038;2022-11-15T15:37:37;8.55;;;2.05;;
30380;SDS011;17169;50.966;11.038;2022-11-15T15:40:40;4.78;;;2.60;;
30380;SDS011;17169;50.966;11.038;2022-11-15T15:43:43;5.82;;;1.98;;
30380;SDS011;17169;50.966;11.038;2022-11-15T15:46:46;4.32;;;1.80;;
30380;SDS011;17169;50.966;11.038;2022-11-15T15:49:49;5.13;;;2.00;;
30380;SDS011;17169;50.966;11.038;2022-11-15T15:52:52;4.30;;;2.05;;
30380;SDS011;17169;50.966;11.038;2022-11-15T15:55:56;3.97;;;2.10;;
30380;SDS011;17169;50.966;11.038;2022-11-15T15:59:00;6.82;;;2.08;;
30380;SDS011;17169;50.966;11.038;2022-11-15T16:02:02;4.28;;;1.90;;
30380;SDS011;17169;50.966;11.038;2022-11-15T16:05:05;5.20;;;2.30;;
30380;SDS011;17169;50.966;11.038;2022-11-15T16:08:10;3.97;;;2.15;;
30380;SDS011;17169;50.966;11.038;2022-11-15T16:11:19;6.75;;;2.63;;
30380;SDS011;17169;50.966;11.038;2022-11-15T16:14:23;5.47;;;2.28;;
30380;SDS011;17169;50.966;11.038;2022-11-15T16:17:26;6.07;;;2.20;;
30380;SDS011;17169;50.966;11.038;2022-11-15T16:20:31;4.63;;;2.28;;
30380;SDS011;17169;50.966;11.038;2022-11-15T16:23:36;5.57;;;3.33;;
30380;SDS011;17169;50.966;11.038;2022-11-15T16:26:38;5.78;;;2.65;;
30380;SDS011;17169;50.966;11.038;2022-11-15T16:29:42;4.47;;;2.60;;
30380;SDS011;17169;50.966;11.038;2022-11-15T16:32:45;4.95;;;2.78;;
30380;SDS011;17169;50.966;11.038;2022-11-15T16:35:47;4.60;;;2.30;;
30380;SDS011;17169;50.966;11.038;2022-11-15T16:38:50;4.60;;;2.53;;
30380;SDS011;17169;50.966;11.038;2022-11-15T16:41:52;11.65;;;2.50;;
30380;SDS011;17169;50.966;11.038;2022-11-15T16:44:56;5.05;;;2.50;;
30380;SDS011;17169;50.966;11.038;2022-11-15T16:47:58;6.57;;;2.50;;
30380;SDS011;17169;50.966;11.038;2022-11-15T16:51:01;3.72;;;2.40;;
30380;SDS011;17169;50.966;11.038;2022-11-15T16:54:04;4.63;;;2.55;;
30380;SDS011;17169;50.966;11.038;2022-11-15T16:57:07;4.57;;;2.03;;
30380;SDS011;17169;50.966;11.038;2022-11-15T17:00:12;4.93;;;2.40;;
30380;SDS011;17169;50.966;11.038;2022-11-15T17:03:16;3.22;;;1.90;;
30380;SDS011;17169;50.966;11.038;2022-11-15T17:06:19;5.22;;;2.30;;
30380;SDS011;17169;50.966;11.038;2022-11-15T17:09:22;5.28;;;2.83;;
30380;SDS011;17169;50.966;11.038;2022-11-15T17:12:24;6.18;;;3.30;;
30380;SDS011;17169;50.966;11.038;2022-11-15T17:15:28;6.30;;;2.88;;
30380;SDS011;17169;50.966;11.038;2022-11-15T17:18:30;7.35;;;2.08;;
30380;SDS011;17169;50.966;11.038;2022-11-15T17:21:33;4.55;;;2.13;;
30380;SDS011;17169;50.966;11.038;2022-11-15T17:24:35;7.63;;;2.80;;
30380;SDS011;17169;50.966;11.038;2022-11-15T17:27:37;7.57;;;3.33;;
30380;SDS011;17169;50.966;11.038;2022-11-15T17:30:41;5.15;;;2.15;;
30380;SDS011;17169;50.966;11.038;2022-11-15T17:33:44;6.22;;;2.40;;
30380;SDS011;17169;50.966;11.038;2022-11-15T17:36:47;9.23;;;2.67;;
30380;SDS011;17169;50.966;11.038;2022-11-15T17:39:49;7.35;;;2.70;;
30380;SDS011;17169;50.966;11.038;2022-11-15T17:42:52;6.93;;;2.53;;
30380;SDS011;17169;50.966;11.038;2022-11-15T17:45:56;9.25;;;2.58;;
30380;SDS011;17169;50.966;11.038;2022-11-15T17:48:58;5.03;;;2.42;;
30380;SDS011;17169;50.966;11.038;2022-11-15T17:52:01;4.75;;;2.50;;
30380;SDS011;17169;50.966;11.038;2022-11-15T17:55:03;4.35;;;2.33;;
30380;SDS011;17169;50.966;11.038;2022-11-15T17:58:06;7.97;;;3.60;;
30380;SDS011;17169;50.966;11.038;2022-11-15T18:01:13;7.88;;;4.18;;
30380;SDS011;17169;50.966;11.038;2022-11-15T18:04:18;14.90;;;6.57;;
30380;SDS011;17169;50.966;11.038;2022-11-15T18:07:23;16.87;;;8.10;;
30380;SDS011;17169;50.966;11.038;2022-11-15T18:10:25;19.05;;;8.90;;
30380;SDS011;17169;50.966;11.038;2022-11-15T18:13:27;33.03;;;13.98;;
30380;SDS011;17169;50.966;11.038;2022-11-15T18:16:32;36.08;;;16.73;;
30380;SDS011;17169;50.966;11.038;2022-11-15T18:19:36;47.42;;;22.10;;
30380;SDS011;17169;50.966;11.038;2022-11-15T18:22:38;56.28;;;24.98;;
30380;SDS011;17169;50.966;11.038;2022-11-15T18:25:40;37.72;;;19.15;;
30380;SDS011;17169;50.966;11.038;2022-11-15T18:28:44;41.33;;;20.30;;
30380;SDS011;17169;50.966;11.038;2022-11-15T18:31:49;38.40;;;17.48;;
30380;SDS011;17169;50.966;11.038;2022-11-15T18:34:54;25.83;;;13.45;;
30380;SDS011;17169;50.966;11.038;2022-11-15T18:37:57;29.83;;;13.18;;
30380;SDS011;17169;50.966;11.038;2022-11-15T18:41:04;24.58;;;11.45;;
30380;SDS011;17169;50.966;11.038;2022-11-15T18:44:08;20.25;;;10.63;;
30380;SDS011;17169;50.966;11.038;2022-11-15T18:47:11;11.82;;;6.40;;
30380;SDS011;17169;50.966;11.038;2022-11-15T18:50:14;12.63;;;6.22;;
30380;SDS011;17169;50.966;11.038;2022-11-15T18:53:17;15.07;;;6.75;;
30380;SDS011;17169;50.966;11.038;2022-11-15T18:56:19;16.70;;;7.93;;
30380;SDS011;17169;50.966;11.038;2022-11-15T18:59:22;19.83;;;9.10;;